createdAt,value
2023-01-15T00:02:49.053Z,7.70
2023-01-15T00:05:37.820Z,7.60
2023-01-15T00:08:26.458Z,7.60
2023-01-15T00:11:15.443Z,7.60
2023-01-15T00:14:06.213Z,7.50
2023-01-15T00:16:55.430Z,7.40
2023-01-15T00:19:44.439Z,7.40
2023-01-15T00:22:33.451Z,7.40
2023-01-15T00:25:42.230Z,7.30
2023-01-15T00:28:31.084Z,7.40
2023-01-15T00:31:21.562Z,7.40
2023-01-15T00:34:12.598Z,7.40
2023-01-15T00:37:01.533Z,7.40
2023-01-15T00:39:50.498Z,7.30
2023-01-15T00:42:39.513Z,7.30
2023-01-15T00:45:28.629Z,7.40
2023-01-15T00:48:19.289Z,7.30
2023-01-15T00:51:08.451Z,7.30
2023-01-15T00:53:57.368Z,7.20
2023-01-15T00:56:46.373Z,7.30
2023-01-15T00:59:35.230Z,7.20
2023-01-15T01:02:24.128Z,7.20
2023-01-15T01:05:14.416Z,7.20
2023-01-15T01:08:03.208Z,7.20
2023-01-15T01:10:57.902Z,7.20
2023-01-15T01:13:46.224Z,7.20
2023-01-15T01:16:45.033Z,7.20
2023-01-15T01:19:33.932Z,7.20
2023-01-15T01:22:24.175Z,7.00
2023-01-15T01:25:13.015Z,6.70
2023-01-15T01:28:02.212Z,6.50
2023-01-15T01:30:50.862Z,6.40
2023-01-15T01:33:39.543Z,6.40
2023-01-15T01:36:30.034Z,6.30
2023-01-15T01:39:21.018Z,6.20
2023-01-15T01:42:14.648Z,6.20
2023-01-15T01:45:07.540Z,6.10
2023-01-15T01:48:01.009Z,6.10
2023-01-15T01:50:52.397Z,6.00
2023-01-15T01:53:41.375Z,6.00
2023-01-15T01:56:36.916Z,6.00
2023-01-15T01:59:28.407Z,6.00
2023-01-15T02:02:19.786Z,5.90
2023-01-15T02:05:10.593Z,5.90
2023-01-15T02:07:59.335Z,5.90
2023-01-15T02:10:53.370Z,5.80
2023-01-15T02:13:50.373Z,5.80
2023-01-15T02:16:44.954Z,5.70
2023-01-15T02:19:46.934Z,5.70
2023-01-15T02:22:45.990Z,5.60
2023-01-15T02:25:43.042Z,5.60
2023-01-15T02:28:36.119Z,5.50
2023-01-15T02:31:31.301Z,5.50
2023-01-15T02:34:25.640Z,5.50
2023-01-15T02:37:20.994Z,5.50
2023-01-15T02:40:13.398Z,5.30
2023-01-15T02:43:02.254Z,5.20
2023-01-15T02:45:55.496Z,5.00
2023-01-15T02:48:48.884Z,4.80
2023-01-15T02:51:43.063Z,4.60
2023-01-15T02:54:36.651Z,4.50
2023-01-15T02:57:29.786Z,4.50
2023-01-15T03:00:20.645Z,4.50
2023-01-15T03:03:15.865Z,4.20
2023-01-15T03:06:10.033Z,4.20
2023-01-15T03:08:58.718Z,4.20
2023-01-15T03:11:56.796Z,4.10
2023-01-15T03:14:54.774Z,4.10
2023-01-15T03:17:50.907Z,4.10
2023-01-15T03:20:48.787Z,4.10
2023-01-15T03:23:39.751Z,4.10
2023-01-15T03:26:29.188Z,4.00
2023-01-15T03:29:18.432Z,3.90
2023-01-15T03:32:07.990Z,3.90
2023-01-15T03:34:58.785Z,3.90
2023-01-15T03:37:48.867Z,3.80
2023-01-15T03:40:40.461Z,3.80
2023-01-15T03:43:43.586Z,3.80
2023-01-15T03:46:45.708Z,3.80
2023-01-15T03:49:45.586Z,3.80
2023-01-15T03:52:42.059Z,3.80
2023-01-15T03:55:40.577Z,3.80
2023-01-15T03:58:31.698Z,3.70
2023-01-15T04:01:24.448Z,3.60
2023-01-15T04:04:15.528Z,3.50
2023-01-15T04:07:05.057Z,3.50
2023-01-15T04:09:53.920Z,3.50
2023-01-15T04:12:44.266Z,3.50
2023-01-15T04:15:33.009Z,3.40
2023-01-15T04:18:22.276Z,3.40
2023-01-15T04:21:10.976Z,3.40
2023-01-15T04:23:59.649Z,3.40
2023-01-15T04:26:48.391Z,3.30
2023-01-15T04:29:38.400Z,3.20
2023-01-15T04:32:27.611Z,3.20
2023-01-15T04:35:16.470Z,3.10
2023-01-15T04:38:05.164Z,3.10
2023-01-15T04:41:11.454Z,3.10
2023-01-15T04:44:08.946Z,3.10
2023-01-15T04:47:00.139Z,3.10
2023-01-15T04:49:48.968Z,3.10
2023-01-15T04:52:37.622Z,3.10
2023-01-15T04:55:26.225Z,3.10
2023-01-15T04:58:14.928Z,3.10
2023-01-15T05:01:05.233Z,3.10
2023-01-15T05:03:55.395Z,3.10
2023-01-15T05:06:44.186Z,3.10
2023-01-15T05:09:33.670Z,3.10
2023-01-15T05:12:22.392Z,3.10
2023-01-15T05:15:11.663Z,3.00
2023-01-15T05:18:00.312Z,3.00
2023-01-15T05:20:51.447Z,3.00
2023-01-15T05:23:40.145Z,3.00
2023-01-15T05:26:31.349Z,3.10
2023-01-15T05:29:20.038Z,3.00
2023-01-15T05:32:09.676Z,2.90
2023-01-15T05:34:58.486Z,2.90
2023-01-15T05:37:48.543Z,2.90
2023-01-15T05:40:37.952Z,2.90
2023-01-15T05:43:26.908Z,2.90
2023-01-15T05:46:15.478Z,2.90
2023-01-15T05:49:05.324Z,2.90
2023-01-15T05:51:55.297Z,3.00
2023-01-15T05:54:45.381Z,3.00
2023-01-15T05:57:34.136Z,3.10
2023-01-15T06:00:23.959Z,3.10
2023-01-15T06:03:12.607Z,3.00
2023-01-15T06:06:01.221Z,3.10
2023-01-15T06:08:49.888Z,3.10
2023-01-15T06:11:40.092Z,3.10
2023-01-15T06:14:28.749Z,3.10
2023-01-15T06:17:17.390Z,3.10
2023-01-15T06:20:06.712Z,3.10
2023-01-15T06:22:55.320Z,3.10
2023-01-15T06:25:43.938Z,3.10
2023-01-15T06:28:34.662Z,3.00
2023-01-15T06:31:26.934Z,3.00
2023-01-15T06:34:15.815Z,2.90
2023-01-15T06:37:04.455Z,2.90
2023-01-15T06:39:53.141Z,2.90
2023-01-15T06:42:58.943Z,2.90
2023-01-15T06:46:21.266Z,2.80
2023-01-15T06:49:09.883Z,2.80
2023-01-15T06:51:58.780Z,2.80
2023-01-15T06:54:47.481Z,2.80
2023-01-15T06:57:38.991Z,2.80
2023-01-15T07:00:27.692Z,2.80
2023-01-15T07:03:17.729Z,2.70
2023-01-15T07:06:10.613Z,2.70
2023-01-15T07:08:59.558Z,2.60
2023-01-15T07:11:50.777Z,2.70
2023-01-15T07:14:39.468Z,2.70
2023-01-15T07:17:28.227Z,2.80
2023-01-15T07:20:21.725Z,2.80
2023-01-15T07:23:10.417Z,2.80
2023-01-15T07:25:59.003Z,2.80
2023-01-15T07:28:47.795Z,2.80
2023-01-15T07:31:36.619Z,2.80
2023-01-15T07:34:25.448Z,2.80
2023-01-15T07:37:15.446Z,2.70
2023-01-15T07:40:04.205Z,2.70
2023-01-15T07:43:10.351Z,2.80
2023-01-15T07:46:16.047Z,2.80
2023-01-15T07:49:21.890Z,2.80
2023-01-15T07:52:10.517Z,2.70
2023-01-15T07:55:01.255Z,2.70
2023-01-15T07:57:50.089Z,2.70
2023-01-15T08:00:41.217Z,2.70
2023-01-15T08:03:30.623Z,2.70
2023-01-15T08:06:19.238Z,2.80
2023-01-15T08:09:08.001Z,2.80
2023-01-15T08:12:17.815Z,2.80
2023-01-15T08:15:16.879Z,2.80
2023-01-15T08:18:06.639Z,2.80
2023-01-15T08:20:55.252Z,2.80
2023-01-15T08:23:46.355Z,2.80
2023-01-15T08:26:35.027Z,2.80
2023-01-15T08:29:25.113Z,2.90
2023-01-15T08:32:14.001Z,2.80
2023-01-15T08:35:02.676Z,2.80
2023-01-15T08:37:51.357Z,2.90
2023-01-15T08:40:58.735Z,2.90
2023-01-15T08:43:47.501Z,2.90
2023-01-15T08:46:37.544Z,2.90
2023-01-15T08:49:26.284Z,2.90
2023-01-15T08:52:15.086Z,2.80
2023-01-15T08:55:03.694Z,2.90
2023-01-15T08:57:52.377Z,2.90
2023-01-15T09:00:41.064Z,2.90
2023-01-15T09:03:31.154Z,2.90
2023-01-15T09:06:19.815Z,2.80
2023-01-15T09:09:08.546Z,2.80
2023-01-15T09:11:57.208Z,2.80
2023-01-15T09:14:58.656Z,2.80
2023-01-15T09:17:53.766Z,2.70
2023-01-15T09:20:43.962Z,2.70
2023-01-15T09:23:32.712Z,2.70
2023-01-15T09:26:31.074Z,2.70
2023-01-15T09:29:19.792Z,2.80
2023-01-15T09:32:10.528Z,2.80
2023-01-15T09:34:59.193Z,2.80
2023-01-15T09:37:54.023Z,2.80
2023-01-15T09:40:49.878Z,2.90
2023-01-15T09:43:51.179Z,3.00
2023-01-15T09:46:48.856Z,3.00
2023-01-15T09:49:58.616Z,3.10
2023-01-15T09:53:14.766Z,3.10
2023-01-15T09:56:04.957Z,3.10
2023-01-15T09:58:55.250Z,3.10
2023-01-15T10:01:49.241Z,3.10
2023-01-15T10:04:44.346Z,3.20
2023-01-15T10:07:42.156Z,3.10
2023-01-15T10:10:37.120Z,3.10
2023-01-15T10:13:40.886Z,3.10
2023-01-15T10:16:33.916Z,3.10
2023-01-15T10:19:23.856Z,3.10
2023-01-15T10:22:22.831Z,3.10
2023-01-15T10:25:17.385Z,3.10
2023-01-15T10:28:19.313Z,3.10
2023-01-15T10:31:18.055Z,3.20
2023-01-15T10:34:38.189Z,3.20
2023-01-15T10:37:32.651Z,3.20
2023-01-15T10:40:46.245Z,3.30
2023-01-15T10:43:45.834Z,3.30
2023-01-15T10:46:38.582Z,3.30
2023-01-15T10:49:30.367Z,3.30
2023-01-15T10:52:26.571Z,3.30
2023-01-15T10:55:22.263Z,3.40
2023-01-15T10:58:17.739Z,3.50
2023-01-15T11:01:14.059Z,3.70
2023-01-15T11:04:02.997Z,3.70
2023-01-15T11:06:51.721Z,3.70
2023-01-15T11:09:43.198Z,3.70
2023-01-15T11:12:48.963Z,3.80
2023-01-15T11:15:55.377Z,3.80
2023-01-15T11:19:04.858Z,3.80
2023-01-15T11:21:54.059Z,3.80
2023-01-15T11:24:51.746Z,3.80
2023-01-15T11:27:41.219Z,3.80
2023-01-15T11:30:33.136Z,3.80
2023-01-15T11:33:28.017Z,3.70
2023-01-15T11:36:25.952Z,3.80
2023-01-15T11:39:28.410Z,4.00
2023-01-15T11:42:35.460Z,4.30
2023-01-15T11:45:42.935Z,4.40
2023-01-15T11:48:49.105Z,4.50
2023-01-15T11:51:42.658Z,4.50
2023-01-15T11:54:34.191Z,4.80
2023-01-15T11:57:29.162Z,4.80
2023-01-15T12:00:23.413Z,4.80
2023-01-15T12:03:18.889Z,4.80
2023-01-15T12:06:11.976Z,4.80
2023-01-15T12:09:11.603Z,4.90
2023-01-15T12:12:10.729Z,5.00
2023-01-15T12:15:11.413Z,5.00
2023-01-15T12:18:21.944Z,5.00
2023-01-15T12:21:28.539Z,5.10
2023-01-15T12:24:38.984Z,5.20
2023-01-15T12:27:39.588Z,5.30
2023-01-15T12:30:39.181Z,5.20
2023-01-15T12:33:39.587Z,5.10
2023-01-15T12:36:33.656Z,5.00
2023-01-15T12:39:26.770Z,4.90
2023-01-15T12:42:37.518Z,4.70
2023-01-15T12:45:29.913Z,4.60
2023-01-15T12:48:28.285Z,4.60
2023-01-15T12:51:24.506Z,4.60
2023-01-15T12:54:17.020Z,4.50
2023-01-15T12:57:15.491Z,4.60
2023-01-15T13:00:13.700Z,4.90
2023-01-15T13:03:17.203Z,5.10
2023-01-15T13:06:09.326Z,5.60
2023-01-15T13:09:03.702Z,5.50
2023-01-15T13:11:52.902Z,5.30
2023-01-15T13:14:41.561Z,5.00
2023-01-15T13:17:40.870Z,5.20
2023-01-15T13:20:44.783Z,5.70
2023-01-15T13:23:45.605Z,6.40
2023-01-15T13:27:12.305Z,6.80
2023-01-15T13:30:15.324Z,6.70
2023-01-15T13:33:24.847Z,5.60
2023-01-15T13:36:17.049Z,5.10
2023-01-15T13:39:12.448Z,4.90
2023-01-15T13:42:19.530Z,4.90
2023-01-15T13:45:29.143Z,4.80
2023-01-15T13:48:24.096Z,4.70
2023-01-15T13:51:27.399Z,4.70
2023-01-15T13:54:19.604Z,4.70
2023-01-15T13:57:22.548Z,4.70
2023-01-15T14:00:31.062Z,4.80
2023-01-15T14:03:29.565Z,4.80
2023-01-15T14:06:18.172Z,4.80
2023-01-15T14:09:06.860Z,4.70
2023-01-15T14:12:09.580Z,4.70
2023-01-15T14:15:09.870Z,4.70
2023-01-15T14:18:15.546Z,4.70
2023-01-15T14:21:24.035Z,4.70
2023-01-15T14:24:48.600Z,4.70
2023-01-15T14:27:50.964Z,4.80
2023-01-15T14:31:15.122Z,4.90
2023-01-15T14:34:22.935Z,4.90
2023-01-15T14:37:27.726Z,5.10
2023-01-15T14:40:24.714Z,5.10
2023-01-15T14:43:22.505Z,5.10
2023-01-15T14:46:16.314Z,5.20
2023-01-15T14:49:05.431Z,5.10
2023-01-15T14:51:54.102Z,4.90
2023-01-15T14:54:45.355Z,4.80
2023-01-15T14:57:34.694Z,4.80
2023-01-15T15:00:25.532Z,4.80
2023-01-15T15:03:18.929Z,4.80
2023-01-15T15:06:09.061Z,4.80
2023-01-15T15:09:03.096Z,4.80
2023-01-15T15:12:10.463Z,4.70
2023-01-15T15:15:06.796Z,4.70
2023-01-15T15:18:06.070Z,4.60
2023-01-15T15:21:01.450Z,4.50
2023-01-15T15:23:57.310Z,4.40
2023-01-15T15:26:46.043Z,4.40
2023-01-15T15:29:36.040Z,4.30
2023-01-15T15:32:26.694Z,4.30
2023-01-15T15:35:26.585Z,4.30
2023-01-15T15:38:20.661Z,4.30
2023-01-15T15:41:13.926Z,4.30
2023-01-15T15:44:23.609Z,4.20
2023-01-15T15:47:38.904Z,4.10
2023-01-15T15:50:29.364Z,4.00
2023-01-15T15:53:19.010Z,3.90
2023-01-15T15:56:08.304Z,3.80
2023-01-15T15:58:58.433Z,3.80
2023-01-15T16:01:47.191Z,3.70
2023-01-15T16:04:37.363Z,3.70
2023-01-15T16:07:28.241Z,3.70
2023-01-15T16:10:20.019Z,3.70
2023-01-15T16:13:15.107Z,3.70
2023-01-15T16:16:05.859Z,3.70
2023-01-15T16:18:57.469Z,3.80
2023-01-15T16:21:48.207Z,3.70
2023-01-15T16:24:36.836Z,3.80
2023-01-15T16:27:28.702Z,3.80
2023-01-15T16:30:18.370Z,3.90
2023-01-15T16:33:08.963Z,3.80
2023-01-15T16:35:58.491Z,3.90
2023-01-15T16:38:51.659Z,3.90
2023-01-15T16:41:42.600Z,3.80
2023-01-15T16:44:38.927Z,3.80
2023-01-15T16:47:29.542Z,3.90
2023-01-15T16:50:31.449Z,3.80
2023-01-15T16:53:44.263Z,3.90
2023-01-15T16:56:55.753Z,3.90
2023-01-15T17:00:02.137Z,3.90
2023-01-15T17:02:51.226Z,3.80
2023-01-15T17:05:39.812Z,3.80
2023-01-15T17:08:35.752Z,3.80
2023-01-15T17:11:27.196Z,3.80
2023-01-15T17:14:22.875Z,3.80
2023-01-15T17:17:24.619Z,3.70
2023-01-15T17:20:14.281Z,3.70
2023-01-15T17:23:02.901Z,3.70
2023-01-15T17:25:51.655Z,3.80
2023-01-15T17:28:40.286Z,3.80
2023-01-15T17:31:32.313Z,3.80
2023-01-15T17:34:25.187Z,3.80
2023-01-15T17:37:13.837Z,3.80
2023-01-15T17:40:02.383Z,3.80
2023-01-15T17:42:51.341Z,3.80
2023-01-15T17:45:39.912Z,3.90
2023-01-15T17:48:30.007Z,3.90
2023-01-15T17:51:19.031Z,3.90
2023-01-15T17:54:07.669Z,4.00
2023-01-15T17:57:13.686Z,3.90
2023-01-15T18:00:19.529Z,3.80
2023-01-15T18:03:32.365Z,3.70
2023-01-15T18:06:23.530Z,3.60
2023-01-15T18:09:12.215Z,3.60
2023-01-15T18:12:00.865Z,3.50
2023-01-15T18:14:49.611Z,3.60
2023-01-15T18:17:38.287Z,3.60
2023-01-15T18:20:26.921Z,3.60
2023-01-15T18:23:16.957Z,3.60
2023-01-15T18:26:06.723Z,3.60
2023-01-15T18:28:56.774Z,3.50
2023-01-15T18:31:45.499Z,3.40
2023-01-15T18:34:34.166Z,3.30
2023-01-15T18:37:22.846Z,3.20
2023-01-15T18:40:13.932Z,3.10
2023-01-15T18:43:19.771Z,3.10
2023-01-15T18:46:25.973Z,3.10
2023-01-15T18:49:14.553Z,3.10
2023-01-15T18:52:20.839Z,3.10
2023-01-15T18:55:10.464Z,3.00
2023-01-15T18:58:00.936Z,2.90
2023-01-15T19:00:49.629Z,2.90
2023-01-15T19:03:38.249Z,2.80
2023-01-15T19:06:26.895Z,2.70
2023-01-15T19:09:16.855Z,2.70
2023-01-15T19:12:06.271Z,2.80
2023-01-15T19:15:13.486Z,2.80
2023-01-15T19:18:20.085Z,2.80
2023-01-15T19:21:10.418Z,2.90
2023-01-15T19:23:59.034Z,2.90
2023-01-15T19:26:47.592Z,3.00
2023-01-15T19:29:36.265Z,3.00
2023-01-15T19:32:56.875Z,2.90
2023-01-15T19:35:45.582Z,2.90
2023-01-15T19:38:35.396Z,2.80
2023-01-15T19:41:41.517Z,2.80
2023-01-15T19:44:47.454Z,2.80
2023-01-15T19:47:56.358Z,2.80
2023-01-15T19:50:47.364Z,2.80
2023-01-15T19:53:37.251Z,2.80
2023-01-15T19:56:28.546Z,2.80
2023-01-15T19:59:17.185Z,2.80
2023-01-15T20:02:08.389Z,2.90
2023-01-15T20:05:00.410Z,2.90
2023-01-15T20:07:50.474Z,2.90
2023-01-15T20:10:41.306Z,2.80
2023-01-15T20:13:47.137Z,2.80
2023-01-15T20:16:35.760Z,2.80
2023-01-15T20:19:26.147Z,2.80
2023-01-15T20:22:14.779Z,2.80
2023-01-15T20:25:05.583Z,2.90
2023-01-15T20:27:54.583Z,2.90
2023-01-15T20:30:44.298Z,2.90
2023-01-15T20:33:34.361Z,2.90
2023-01-15T20:36:23.448Z,3.00
2023-01-15T20:39:15.779Z,3.00
2023-01-15T20:42:23.571Z,3.00
2023-01-15T20:45:13.501Z,3.00
2023-01-15T20:48:19.831Z,2.90
2023-01-15T20:51:13.040Z,2.90
2023-01-15T20:54:01.615Z,3.00
2023-01-15T20:56:51.044Z,3.00
2023-01-15T20:59:41.183Z,3.00
2023-01-15T21:02:29.831Z,3.00
2023-01-15T21:05:20.511Z,3.00
2023-01-15T21:08:09.158Z,3.10
2023-01-15T21:10:57.810Z,3.10
2023-01-15T21:13:47.198Z,3.10
2023-01-15T21:16:37.354Z,3.10
2023-01-15T21:19:26.162Z,3.20
2023-01-15T21:22:14.751Z,3.20
2023-01-15T21:25:03.345Z,3.20
2023-01-15T21:27:51.935Z,3.20
2023-01-15T21:30:41.965Z,3.20
2023-01-15T21:33:31.945Z,3.20
2023-01-15T21:36:20.562Z,3.20
2023-01-15T21:39:11.791Z,3.20
2023-01-15T21:42:26.167Z,3.10
2023-01-15T21:45:14.815Z,3.10
2023-01-15T21:48:03.386Z,3.10
2023-01-15T21:50:53.388Z,3.00
2023-01-15T21:53:41.965Z,3.00
2023-01-15T21:56:30.611Z,2.90
2023-01-15T21:59:21.213Z,2.80
2023-01-15T22:02:16.715Z,2.70
2023-01-15T22:05:06.255Z,2.70
2023-01-15T22:07:56.290Z,2.70
2023-01-15T22:10:44.934Z,2.70
2023-01-15T22:13:34.045Z,2.80
2023-01-15T22:16:22.689Z,2.80
2023-01-15T22:19:12.416Z,2.80
2023-01-15T22:22:02.902Z,2.90
2023-01-15T22:24:52.881Z,2.80
2023-01-15T22:27:42.603Z,2.90
2023-01-15T22:30:31.288Z,2.90
2023-01-15T22:33:19.908Z,2.90
2023-01-15T22:36:13.060Z,2.90
2023-01-15T22:39:01.661Z,2.80
2023-01-15T22:42:09.273Z,2.80
2023-01-15T22:45:00.220Z,2.80
2023-01-15T22:47:48.999Z,2.80
2023-01-15T22:50:39.057Z,2.80
2023-01-15T22:53:27.665Z,2.70
2023-01-15T22:56:16.270Z,2.70
2023-01-15T22:59:06.833Z,2.70
2023-01-15T23:01:55.583Z,2.70
2023-01-15T23:04:44.316Z,2.60
2023-01-15T23:07:34.843Z,2.70
2023-01-15T23:10:23.440Z,2.60
2023-01-15T23:13:12.235Z,2.60
2023-01-15T23:16:02.476Z,2.60
2023-01-15T23:18:51.348Z,2.60
2023-01-15T23:21:41.103Z,2.50
2023-01-15T23:24:29.671Z,2.50
2023-01-15T23:27:18.334Z,2.50
2023-01-15T23:30:08.194Z,2.50
2023-01-15T23:32:58.585Z,2.60
2023-01-15T23:35:47.694Z,2.60
2023-01-15T23:38:36.382Z,2.60
2023-01-15T23:41:39.946Z,2.60
2023-01-15T23:44:51.498Z,2.60
2023-01-15T23:47:40.095Z,2.70
2023-01-15T23:50:30.083Z,2.70
2023-01-15T23:53:18.695Z,2.70
2023-01-15T23:56:08.462Z,2.70
2023-01-15T23:58:57.469Z,2.70
